<?xml version="1.0" encoding="UTF-8"?>
<gpx
version="1.1"
creator="Kashmir3D 9.200 - http://www.kashmir3d.com"
xmlns:xsi="http://www.w3.org/2001/XMLSchema-instance"
xmlns="http://www.topografix.com/GPX/1/1"
xmlns:kashmir3d="http://www.kashmir3d.com/namespace/kashmir3d"
xsi:schemaLocation="http://www.topografix.com/GPX/1/1 http://www.topografix.com/GPX/1/1/gpx.xsd
	http://www.kashmir3d.com/namespace/kashmir3d http://www.kashmir3d.com/namespace/kashmir3d.xsd">
<trk>
 <name>20150429 穂別坊主山</name>
 <number>1</number>
 <extensions>
 <kashmir3d:line_color>0000ff</kashmir3d:line_color>
 <kashmir3d:line_size>2</kashmir3d:line_size>
 <kashmir3d:line_style>1</kashmir3d:line_style>
 <kashmir3d:icon>901001</kashmir3d:icon>
 </extensions>
<trkseg>
<trkpt lat="42.839553" lon="142.228478">
 <ele>521.650000</ele>
 <time>2015-04-28T23:16:36Z</time>
</trkpt>
<trkpt lat="42.839530" lon="142.228462">
 <ele>521.650000</ele>
 <time>2015-04-28T23:16:37Z</time>
</trkpt>
<trkpt lat="42.839507" lon="142.228359">
 <ele>524.060000</ele>
 <time>2015-04-28T23:16:49Z</time>
</trkpt>
<trkpt lat="42.839544" lon="142.228232">
 <ele>525.020000</ele>
 <time>2015-04-28T23:17:01Z</time>
</trkpt>
<trkpt lat="42.839555" lon="142.228202">
 <ele>526.460000</ele>
 <time>2015-04-28T23:17:04Z</time>
</trkpt>
<trkpt lat="42.839592" lon="142.228138">
 <ele>528.860000</ele>
 <time>2015-04-28T23:17:10Z</time>
</trkpt>
<trkpt lat="42.839657" lon="142.228020">
 <ele>532.710000</ele>
 <time>2015-04-28T23:17:21Z</time>
</trkpt>
<trkpt lat="42.839696" lon="142.227868">
 <ele>536.070000</ele>
 <time>2015-04-28T23:17:36Z</time>
</trkpt>
<trkpt lat="42.839696" lon="142.227791">
 <ele>537.510000</ele>
 <time>2015-04-28T23:17:49Z</time>
</trkpt>
<trkpt lat="42.839715" lon="142.227752">
 <ele>538.480000</ele>
 <time>2015-04-28T23:18:16Z</time>
</trkpt>
<trkpt lat="42.839718" lon="142.227586">
 <ele>539.920000</ele>
 <time>2015-04-28T23:18:30Z</time>
</trkpt>
<trkpt lat="42.839718" lon="142.227560">
 <ele>539.920000</ele>
 <time>2015-04-28T23:18:32Z</time>
</trkpt>
<trkpt lat="42.839723" lon="142.227384">
 <ele>539.920000</ele>
 <time>2015-04-28T23:18:46Z</time>
</trkpt>
<trkpt lat="42.839702" lon="142.227147">
 <ele>540.400000</ele>
 <time>2015-04-28T23:19:02Z</time>
</trkpt>
<trkpt lat="42.839664" lon="142.226956">
 <ele>541.360000</ele>
 <time>2015-04-28T23:19:16Z</time>
</trkpt>
<trkpt lat="42.839730" lon="142.226796">
 <ele>544.240000</ele>
 <time>2015-04-28T23:19:30Z</time>
</trkpt>
<trkpt lat="42.839808" lon="142.226792">
 <ele>547.130000</ele>
 <time>2015-04-28T23:19:42Z</time>
</trkpt>
<trkpt lat="42.839952" lon="142.226773">
 <ele>550.490000</ele>
 <time>2015-04-28T23:19:58Z</time>
</trkpt>
<trkpt lat="42.840081" lon="142.226765">
 <ele>553.860000</ele>
 <time>2015-04-28T23:20:15Z</time>
</trkpt>
<trkpt lat="42.840187" lon="142.226803">
 <ele>556.740000</ele>
 <time>2015-04-28T23:20:30Z</time>
</trkpt>
<trkpt lat="42.840285" lon="142.226871">
 <ele>559.140000</ele>
 <time>2015-04-28T23:20:47Z</time>
</trkpt>
<trkpt lat="42.840336" lon="142.226938">
 <ele>562.510000</ele>
 <time>2015-04-28T23:21:01Z</time>
</trkpt>
<trkpt lat="42.840385" lon="142.227019">
 <ele>565.390000</ele>
 <time>2015-04-28T23:21:15Z</time>
</trkpt>
<trkpt lat="42.840469" lon="142.227143">
 <ele>568.280000</ele>
 <time>2015-04-28T23:21:35Z</time>
</trkpt>
<trkpt lat="42.840574" lon="142.227199">
 <ele>571.160000</ele>
 <time>2015-04-28T23:21:51Z</time>
</trkpt>
<trkpt lat="42.840589" lon="142.227122">
 <ele>572.120000</ele>
 <time>2015-04-28T23:22:06Z</time>
</trkpt>
<trkpt lat="42.840635" lon="142.227035">
 <ele>573.560000</ele>
 <time>2015-04-28T23:22:16Z</time>
</trkpt>
<trkpt lat="42.840743" lon="142.226917">
 <ele>574.530000</ele>
 <time>2015-04-28T23:22:31Z</time>
</trkpt>
<trkpt lat="42.840798" lon="142.226798">
 <ele>575.490000</ele>
 <time>2015-04-28T23:22:42Z</time>
</trkpt>
<trkpt lat="42.840832" lon="142.226615">
 <ele>576.450000</ele>
 <time>2015-04-28T23:22:57Z</time>
</trkpt>
<trkpt lat="42.840861" lon="142.226450">
 <ele>577.410000</ele>
 <time>2015-04-28T23:23:11Z</time>
</trkpt>
<trkpt lat="42.840925" lon="142.226283">
 <ele>578.850000</ele>
 <time>2015-04-28T23:23:25Z</time>
</trkpt>
<trkpt lat="42.840996" lon="142.226169">
 <ele>580.290000</ele>
 <time>2015-04-28T23:23:53Z</time>
</trkpt>
<trkpt lat="42.841084" lon="142.226018">
 <ele>580.770000</ele>
 <time>2015-04-28T23:24:13Z</time>
</trkpt>
<trkpt lat="42.841132" lon="142.225998">
 <ele>580.770000</ele>
 <time>2015-04-28T23:24:19Z</time>
</trkpt>
<trkpt lat="42.841295" lon="142.225932">
 <ele>581.730000</ele>
 <time>2015-04-28T23:24:34Z</time>
</trkpt>
<trkpt lat="42.841462" lon="142.225899">
 <ele>583.180000</ele>
 <time>2015-04-28T23:24:49Z</time>
</trkpt>
<trkpt lat="42.841593" lon="142.225876">
 <ele>584.620000</ele>
 <time>2015-04-28T23:25:02Z</time>
</trkpt>
<trkpt lat="42.841741" lon="142.225853">
 <ele>586.060000</ele>
 <time>2015-04-28T23:25:18Z</time>
</trkpt>
<trkpt lat="42.841791" lon="142.225843">
 <ele>586.540000</ele>
 <time>2015-04-28T23:25:23Z</time>
</trkpt>
<trkpt lat="42.841940" lon="142.225837">
 <ele>588.460000</ele>
 <time>2015-04-28T23:25:39Z</time>
</trkpt>
<trkpt lat="42.841975" lon="142.225813">
 <ele>588.950000</ele>
 <time>2015-04-28T23:25:55Z</time>
</trkpt>
<trkpt lat="42.842114" lon="142.225709">
 <ele>590.390000</ele>
 <time>2015-04-28T23:26:12Z</time>
</trkpt>
<trkpt lat="42.842222" lon="142.225666">
 <ele>591.830000</ele>
 <time>2015-04-28T23:26:23Z</time>
</trkpt>
<trkpt lat="42.842384" lon="142.225608">
 <ele>593.270000</ele>
 <time>2015-04-28T23:26:39Z</time>
</trkpt>
<trkpt lat="42.842510" lon="142.225553">
 <ele>593.750000</ele>
 <time>2015-04-28T23:26:53Z</time>
</trkpt>
<trkpt lat="42.842638" lon="142.225502">
 <ele>594.710000</ele>
 <time>2015-04-28T23:27:07Z</time>
</trkpt>
<trkpt lat="42.842786" lon="142.225418">
 <ele>596.150000</ele>
 <time>2015-04-28T23:27:22Z</time>
</trkpt>
<trkpt lat="42.842918" lon="142.225392">
 <ele>597.120000</ele>
 <time>2015-04-28T23:27:35Z</time>
</trkpt>
<trkpt lat="42.843045" lon="142.225346">
 <ele>598.080000</ele>
 <time>2015-04-28T23:27:48Z</time>
</trkpt>
<trkpt lat="42.843173" lon="142.225373">
 <ele>599.520000</ele>
 <time>2015-04-28T23:28:01Z</time>
</trkpt>
<trkpt lat="42.843272" lon="142.225261">
 <ele>600.480000</ele>
 <time>2015-04-28T23:28:15Z</time>
</trkpt>
<trkpt lat="42.843382" lon="142.225095">
 <ele>600.960000</ele>
 <time>2015-04-28T23:28:32Z</time>
</trkpt>
<trkpt lat="42.843521" lon="142.224995">
 <ele>601.920000</ele>
 <time>2015-04-28T23:28:48Z</time>
</trkpt>
<trkpt lat="42.843672" lon="142.224937">
 <ele>602.880000</ele>
 <time>2015-04-28T23:29:04Z</time>
</trkpt>
<trkpt lat="42.843752" lon="142.224901">
 <ele>603.850000</ele>
 <time>2015-04-28T23:29:18Z</time>
</trkpt>
<trkpt lat="42.843883" lon="142.224788">
 <ele>604.330000</ele>
 <time>2015-04-28T23:29:33Z</time>
</trkpt>
<trkpt lat="42.843937" lon="142.224726">
 <ele>604.810000</ele>
 <time>2015-04-28T23:29:48Z</time>
</trkpt>
<trkpt lat="42.844066" lon="142.224602">
 <ele>605.770000</ele>
 <time>2015-04-28T23:30:04Z</time>
</trkpt>
<trkpt lat="42.844201" lon="142.224445">
 <ele>606.730000</ele>
 <time>2015-04-28T23:30:21Z</time>
</trkpt>
<trkpt lat="42.844283" lon="142.224344">
 <ele>608.170000</ele>
 <time>2015-04-28T23:30:34Z</time>
</trkpt>
<trkpt lat="42.844413" lon="142.224226">
 <ele>609.610000</ele>
 <time>2015-04-28T23:30:50Z</time>
</trkpt>
<trkpt lat="42.844443" lon="142.224195">
 <ele>610.090000</ele>
 <time>2015-04-28T23:30:54Z</time>
</trkpt>
<trkpt lat="42.844469" lon="142.224175">
 <ele>610.570000</ele>
 <time>2015-04-28T23:31:09Z</time>
</trkpt>
<trkpt lat="42.844487" lon="142.224157">
 <ele>610.570000</ele>
 <time>2015-04-28T23:31:16Z</time>
</trkpt>
<trkpt lat="42.844504" lon="142.224082">
 <ele>611.540000</ele>
 <time>2015-04-28T23:31:31Z</time>
</trkpt>
<trkpt lat="42.844558" lon="142.223909">
 <ele>614.900000</ele>
 <time>2015-04-28T23:32:04Z</time>
</trkpt>
<trkpt lat="42.844702" lon="142.223712">
 <ele>615.380000</ele>
 <time>2015-04-28T23:32:18Z</time>
</trkpt>
<trkpt lat="42.844834" lon="142.223549">
 <ele>616.820000</ele>
 <time>2015-04-28T23:32:34Z</time>
</trkpt>
<trkpt lat="42.844973" lon="142.223482">
 <ele>619.230000</ele>
 <time>2015-04-28T23:32:50Z</time>
</trkpt>
<trkpt lat="42.845058" lon="142.223434">
 <ele>621.150000</ele>
 <time>2015-04-28T23:33:00Z</time>
</trkpt>
<trkpt lat="42.845137" lon="142.223321">
 <ele>623.550000</ele>
 <time>2015-04-28T23:33:16Z</time>
</trkpt>
<trkpt lat="42.845263" lon="142.223238">
 <ele>624.990000</ele>
 <time>2015-04-28T23:33:31Z</time>
</trkpt>
<trkpt lat="42.845424" lon="142.223232">
 <ele>627.880000</ele>
 <time>2015-04-28T23:33:48Z</time>
</trkpt>
<trkpt lat="42.845542" lon="142.223247">
 <ele>629.800000</ele>
 <time>2015-04-28T23:34:01Z</time>
</trkpt>
<trkpt lat="42.845700" lon="142.223306">
 <ele>632.200000</ele>
 <time>2015-04-28T23:34:53Z</time>
</trkpt>
<trkpt lat="42.845837" lon="142.223396">
 <ele>634.130000</ele>
 <time>2015-04-28T23:35:07Z</time>
</trkpt>
<trkpt lat="42.845914" lon="142.223452">
 <ele>635.090000</ele>
 <time>2015-04-28T23:35:20Z</time>
</trkpt>
<trkpt lat="42.845984" lon="142.223567">
 <ele>637.010000</ele>
 <time>2015-04-28T23:35:35Z</time>
</trkpt>
<trkpt lat="42.846003" lon="142.223624">
 <ele>637.490000</ele>
 <time>2015-04-28T23:35:41Z</time>
</trkpt>
<trkpt lat="42.846055" lon="142.223726">
 <ele>639.410000</ele>
 <time>2015-04-28T23:35:54Z</time>
</trkpt>
<trkpt lat="42.846101" lon="142.223833">
 <ele>641.340000</ele>
 <time>2015-04-28T23:36:10Z</time>
</trkpt>
<trkpt lat="42.846122" lon="142.223894">
 <ele>641.820000</ele>
 <time>2015-04-28T23:36:30Z</time>
</trkpt>
<trkpt lat="42.846162" lon="142.223983">
 <ele>642.300000</ele>
 <time>2015-04-28T23:36:42Z</time>
</trkpt>
<trkpt lat="42.846214" lon="142.223997">
 <ele>643.260000</ele>
 <time>2015-04-28T23:36:54Z</time>
</trkpt>
<trkpt lat="42.846308" lon="142.223994">
 <ele>644.700000</ele>
 <time>2015-04-28T23:37:07Z</time>
</trkpt>
<trkpt lat="42.846335" lon="142.223991">
 <ele>644.700000</ele>
 <time>2015-04-28T23:37:10Z</time>
</trkpt>
<trkpt lat="42.846361" lon="142.223914">
 <ele>646.620000</ele>
 <time>2015-04-28T23:37:23Z</time>
</trkpt>
<trkpt lat="42.846376" lon="142.223767">
 <ele>648.550000</ele>
 <time>2015-04-28T23:37:36Z</time>
</trkpt>
<trkpt lat="42.846423" lon="142.223591">
 <ele>650.470000</ele>
 <time>2015-04-28T23:37:51Z</time>
</trkpt>
<trkpt lat="42.846443" lon="142.223416">
 <ele>652.390000</ele>
 <time>2015-04-28T23:38:06Z</time>
</trkpt>
<trkpt lat="42.846439" lon="142.223257">
 <ele>652.870000</ele>
 <time>2015-04-28T23:38:20Z</time>
</trkpt>
<trkpt lat="42.846436" lon="142.223064">
 <ele>654.310000</ele>
 <time>2015-04-28T23:38:37Z</time>
</trkpt>
<trkpt lat="42.846458" lon="142.222952">
 <ele>656.240000</ele>
 <time>2015-04-28T23:38:51Z</time>
</trkpt>
<trkpt lat="42.846491" lon="142.222891">
 <ele>656.720000</ele>
 <time>2015-04-28T23:39:16Z</time>
</trkpt>
<trkpt lat="42.846540" lon="142.222779">
 <ele>658.640000</ele>
 <time>2015-04-28T23:39:31Z</time>
</trkpt>
<trkpt lat="42.846568" lon="142.222701">
 <ele>658.640000</ele>
 <time>2015-04-28T23:39:38Z</time>
</trkpt>
<trkpt lat="42.846651" lon="142.222525">
 <ele>661.040000</ele>
 <time>2015-04-28T23:39:54Z</time>
</trkpt>
<trkpt lat="42.846766" lon="142.222391">
 <ele>662.490000</ele>
 <time>2015-04-28T23:40:10Z</time>
</trkpt>
<trkpt lat="42.846921" lon="142.222315">
 <ele>663.450000</ele>
 <time>2015-04-28T23:40:26Z</time>
</trkpt>
<trkpt lat="42.847037" lon="142.222270">
 <ele>663.930000</ele>
 <time>2015-04-28T23:40:41Z</time>
</trkpt>
<trkpt lat="42.847110" lon="142.222224">
 <ele>664.890000</ele>
 <time>2015-04-28T23:41:01Z</time>
</trkpt>
<trkpt lat="42.847201" lon="142.222198">
 <ele>665.850000</ele>
 <time>2015-04-28T23:41:17Z</time>
</trkpt>
<trkpt lat="42.847314" lon="142.222115">
 <ele>668.250000</ele>
 <time>2015-04-28T23:41:31Z</time>
</trkpt>
<trkpt lat="42.847443" lon="142.222054">
 <ele>668.730000</ele>
 <time>2015-04-28T23:41:46Z</time>
</trkpt>
<trkpt lat="42.847575" lon="142.222012">
 <ele>670.660000</ele>
 <time>2015-04-28T23:42:01Z</time>
</trkpt>
<trkpt lat="42.847682" lon="142.221971">
 <ele>672.100000</ele>
 <time>2015-04-28T23:42:14Z</time>
</trkpt>
<trkpt lat="42.847822" lon="142.221964">
 <ele>674.500000</ele>
 <time>2015-04-28T23:42:29Z</time>
</trkpt>
<trkpt lat="42.847924" lon="142.221951">
 <ele>676.910000</ele>
 <time>2015-04-28T23:42:42Z</time>
</trkpt>
<trkpt lat="42.847945" lon="142.221952">
 <ele>677.390000</ele>
 <time>2015-04-28T23:42:45Z</time>
</trkpt>
<trkpt lat="42.848019" lon="142.221913">
 <ele>677.870000</ele>
 <time>2015-04-28T23:42:55Z</time>
</trkpt>
<trkpt lat="42.848148" lon="142.221864">
 <ele>678.830000</ele>
 <time>2015-04-28T23:43:10Z</time>
</trkpt>
<trkpt lat="42.848251" lon="142.221806">
 <ele>681.230000</ele>
 <time>2015-04-28T23:43:24Z</time>
</trkpt>
<trkpt lat="42.848368" lon="142.221778">
 <ele>682.670000</ele>
 <time>2015-04-28T23:43:37Z</time>
</trkpt>
<trkpt lat="42.848437" lon="142.221771">
 <ele>684.120000</ele>
 <time>2015-04-28T23:43:49Z</time>
</trkpt>
<trkpt lat="42.848478" lon="142.221755">
 <ele>685.080000</ele>
 <time>2015-04-28T23:44:00Z</time>
</trkpt>
<trkpt lat="42.848560" lon="142.221773">
 <ele>686.520000</ele>
 <time>2015-04-28T23:44:23Z</time>
</trkpt>
<trkpt lat="42.848683" lon="142.221811">
 <ele>688.920000</ele>
 <time>2015-04-28T23:44:40Z</time>
</trkpt>
<trkpt lat="42.848780" lon="142.221840">
 <ele>690.840000</ele>
 <time>2015-04-28T23:44:53Z</time>
</trkpt>
<trkpt lat="42.848867" lon="142.221892">
 <ele>692.770000</ele>
 <time>2015-04-28T23:45:06Z</time>
</trkpt>
<trkpt lat="42.848943" lon="142.221973">
 <ele>694.690000</ele>
 <time>2015-04-28T23:45:20Z</time>
</trkpt>
<trkpt lat="42.849041" lon="142.221988">
 <ele>696.130000</ele>
 <time>2015-04-28T23:45:33Z</time>
</trkpt>
<trkpt lat="42.849130" lon="142.221989">
 <ele>698.050000</ele>
 <time>2015-04-28T23:45:46Z</time>
</trkpt>
<trkpt lat="42.849157" lon="142.222002">
 <ele>699.020000</ele>
 <time>2015-04-28T23:45:49Z</time>
</trkpt>
<trkpt lat="42.849270" lon="142.222118">
 <ele>699.980000</ele>
 <time>2015-04-28T23:46:05Z</time>
</trkpt>
<trkpt lat="42.849344" lon="142.222231">
 <ele>700.940000</ele>
 <time>2015-04-28T23:46:20Z</time>
</trkpt>
<trkpt lat="42.849409" lon="142.222343">
 <ele>702.380000</ele>
 <time>2015-04-28T23:46:35Z</time>
</trkpt>
<trkpt lat="42.849479" lon="142.222398">
 <ele>704.780000</ele>
 <time>2015-04-28T23:46:50Z</time>
</trkpt>
<trkpt lat="42.849588" lon="142.222442">
 <ele>706.710000</ele>
 <time>2015-04-28T23:47:06Z</time>
</trkpt>
<trkpt lat="42.849655" lon="142.222353">
 <ele>709.590000</ele>
 <time>2015-04-28T23:47:21Z</time>
</trkpt>
<trkpt lat="42.849680" lon="142.222263">
 <ele>710.070000</ele>
 <time>2015-04-28T23:47:30Z</time>
</trkpt>
<trkpt lat="42.849750" lon="142.222160">
 <ele>710.070000</ele>
 <time>2015-04-28T23:47:44Z</time>
</trkpt>
<trkpt lat="42.849766" lon="142.222154">
 <ele>708.630000</ele>
 <time>2015-04-28T23:47:49Z</time>
</trkpt>
<trkpt lat="42.849769" lon="142.222002">
 <ele>710.550000</ele>
 <time>2015-04-28T23:48:03Z</time>
</trkpt>
<trkpt lat="42.849778" lon="142.221975">
 <ele>710.550000</ele>
 <time>2015-04-28T23:48:16Z</time>
</trkpt>
<trkpt lat="42.849764" lon="142.221925">
 <ele>710.550000</ele>
 <time>2015-04-28T23:48:45Z</time>
</trkpt>
<trkpt lat="42.849733" lon="142.221792">
 <ele>712.470000</ele>
 <time>2015-04-28T23:48:59Z</time>
</trkpt>
<trkpt lat="42.849709" lon="142.221734">
 <ele>713.440000</ele>
 <time>2015-04-28T23:49:11Z</time>
</trkpt>
<trkpt lat="42.849677" lon="142.221646">
 <ele>715.840000</ele>
 <time>2015-04-28T23:49:24Z</time>
</trkpt>
<trkpt lat="42.849617" lon="142.221447">
 <ele>717.760000</ele>
 <time>2015-04-28T23:49:52Z</time>
</trkpt>
<trkpt lat="42.849624" lon="142.221309">
 <ele>719.200000</ele>
 <time>2015-04-28T23:50:04Z</time>
</trkpt>
<trkpt lat="42.849608" lon="142.221209">
 <ele>721.610000</ele>
 <time>2015-04-28T23:50:18Z</time>
</trkpt>
<trkpt lat="42.849599" lon="142.221050">
 <ele>723.050000</ele>
 <time>2015-04-28T23:50:34Z</time>
</trkpt>
<trkpt lat="42.849571" lon="142.220844">
 <ele>723.530000</ele>
 <time>2015-04-28T23:50:48Z</time>
</trkpt>
<trkpt lat="42.849626" lon="142.220680">
 <ele>725.450000</ele>
 <time>2015-04-28T23:51:01Z</time>
</trkpt>
<trkpt lat="42.849649" lon="142.220576">
 <ele>725.930000</ele>
 <time>2015-04-28T23:51:15Z</time>
</trkpt>
<trkpt lat="42.849754" lon="142.220515">
 <ele>726.410000</ele>
 <time>2015-04-28T23:51:33Z</time>
</trkpt>
<trkpt lat="42.849794" lon="142.220613">
 <ele>727.860000</ele>
 <time>2015-04-28T23:51:46Z</time>
</trkpt>
<trkpt lat="42.849829" lon="142.220770">
 <ele>729.300000</ele>
 <time>2015-04-28T23:52:01Z</time>
</trkpt>
<trkpt lat="42.849849" lon="142.220823">
 <ele>729.780000</ele>
 <time>2015-04-28T23:52:06Z</time>
</trkpt>
<trkpt lat="42.849894" lon="142.220919">
 <ele>730.740000</ele>
 <time>2015-04-28T23:52:17Z</time>
</trkpt>
<trkpt lat="42.849942" lon="142.221036">
 <ele>732.180000</ele>
 <time>2015-04-28T23:52:29Z</time>
</trkpt>
<trkpt lat="42.849946" lon="142.221047">
 <ele>732.180000</ele>
 <time>2015-04-28T23:52:30Z</time>
</trkpt>
<trkpt lat="42.850019" lon="142.221237">
 <ele>732.180000</ele>
 <time>2015-04-28T23:52:45Z</time>
</trkpt>
<trkpt lat="42.850101" lon="142.221394">
 <ele>733.620000</ele>
 <time>2015-04-28T23:52:58Z</time>
</trkpt>
<trkpt lat="42.850126" lon="142.221433">
 <ele>733.620000</ele>
 <time>2015-04-28T23:53:02Z</time>
</trkpt>
<trkpt lat="42.850187" lon="142.221554">
 <ele>734.580000</ele>
 <time>2015-04-28T23:53:16Z</time>
</trkpt>
<trkpt lat="42.850254" lon="142.221619">
 <ele>734.580000</ele>
 <time>2015-04-28T23:53:37Z</time>
</trkpt>
<trkpt lat="42.850294" lon="142.221731">
 <ele>734.580000</ele>
 <time>2015-04-28T23:53:50Z</time>
</trkpt>
<trkpt lat="42.850338" lon="142.221788">
 <ele>735.070000</ele>
 <time>2015-04-28T23:53:57Z</time>
</trkpt>
<trkpt lat="42.850436" lon="142.221910">
 <ele>736.030000</ele>
 <time>2015-04-28T23:54:13Z</time>
</trkpt>
<trkpt lat="42.850470" lon="142.221987">
 <ele>736.510000</ele>
 <time>2015-04-28T23:54:26Z</time>
</trkpt>
<trkpt lat="42.850506" lon="142.222010">
 <ele>736.510000</ele>
 <time>2015-04-28T23:54:41Z</time>
</trkpt>
<trkpt lat="42.850528" lon="142.222022">
 <ele>736.510000</ele>
 <time>2015-04-28T23:54:50Z</time>
</trkpt>
<trkpt lat="42.850596" lon="142.222111">
 <ele>736.990000</ele>
 <time>2015-04-28T23:55:01Z</time>
</trkpt>
<trkpt lat="42.850723" lon="142.222327">
 <ele>737.470000</ele>
 <time>2015-04-28T23:55:19Z</time>
</trkpt>
<trkpt lat="42.850847" lon="142.222555">
 <ele>737.470000</ele>
 <time>2015-04-28T23:55:37Z</time>
</trkpt>
<trkpt lat="42.850931" lon="142.222711">
 <ele>737.470000</ele>
 <time>2015-04-28T23:55:53Z</time>
</trkpt>
<trkpt lat="42.851004" lon="142.222823">
 <ele>738.430000</ele>
 <time>2015-04-28T23:56:03Z</time>
</trkpt>
<trkpt lat="42.851133" lon="142.223025">
 <ele>739.390000</ele>
 <time>2015-04-28T23:56:21Z</time>
</trkpt>
<trkpt lat="42.851280" lon="142.223249">
 <ele>740.830000</ele>
 <time>2015-04-28T23:56:41Z</time>
</trkpt>
<trkpt lat="42.851344" lon="142.223355">
 <ele>741.310000</ele>
 <time>2015-04-28T23:56:50Z</time>
</trkpt>
<trkpt lat="42.851470" lon="142.223580">
 <ele>742.280000</ele>
 <time>2015-04-28T23:57:09Z</time>
</trkpt>
<trkpt lat="42.851588" lon="142.223808">
 <ele>742.760000</ele>
 <time>2015-04-28T23:57:27Z</time>
</trkpt>
<trkpt lat="42.851575" lon="142.224068">
 <ele>743.720000</ele>
 <time>2015-04-28T23:57:45Z</time>
</trkpt>
<trkpt lat="42.851538" lon="142.224150">
 <ele>744.680000</ele>
 <time>2015-04-28T23:57:52Z</time>
</trkpt>
<trkpt lat="42.851503" lon="142.224303">
 <ele>744.680000</ele>
 <time>2015-04-28T23:58:03Z</time>
</trkpt>
<trkpt lat="42.851461" lon="142.224321">
 <ele>745.160000</ele>
 <time>2015-04-28T23:58:10Z</time>
</trkpt>
<trkpt lat="42.851435" lon="142.224256">
 <ele>745.640000</ele>
 <time>2015-04-28T23:58:26Z</time>
</trkpt>
<trkpt lat="42.851395" lon="142.224175">
 <ele>746.600000</ele>
 <time>2015-04-28T23:58:41Z</time>
</trkpt>
<trkpt lat="42.851334" lon="142.224115">
 <ele>747.560000</ele>
 <time>2015-04-28T23:58:55Z</time>
</trkpt>
<trkpt lat="42.851242" lon="142.224029">
 <ele>748.520000</ele>
 <time>2015-04-28T23:59:21Z</time>
</trkpt>
<trkpt lat="42.851232" lon="142.224050">
 <ele>748.520000</ele>
 <time>2015-04-28T23:59:23Z</time>
</trkpt>
<trkpt lat="42.851157" lon="142.224108">
 <ele>749.000000</ele>
 <time>2015-04-28T23:59:31Z</time>
</trkpt>
<trkpt lat="42.851136" lon="142.224147">
 <ele>749.000000</ele>
 <time>2015-04-28T23:59:34Z</time>
</trkpt>
<trkpt lat="42.851107" lon="142.224182">
 <ele>749.000000</ele>
 <time>2015-04-28T23:59:49Z</time>
</trkpt>
<trkpt lat="42.851085" lon="142.224269">
 <ele>748.040000</ele>
 <time>2015-04-29T00:00:39Z</time>
</trkpt>
<trkpt lat="42.851068" lon="142.224288">
 <ele>749.490000</ele>
 <time>2015-04-29T00:00:42Z</time>
</trkpt>
<trkpt lat="42.851026" lon="142.224357">
 <ele>749.490000</ele>
 <time>2015-04-29T00:00:57Z</time>
</trkpt>
<trkpt lat="42.851019" lon="142.224373">
 <ele>749.490000</ele>
 <time>2015-04-29T00:01:06Z</time>
</trkpt>
<trkpt lat="42.850961" lon="142.224462">
 <ele>748.040000</ele>
 <time>2015-04-29T00:01:14Z</time>
</trkpt>
<trkpt lat="42.850948" lon="142.224482">
 <ele>748.040000</ele>
 <time>2015-04-29T00:01:16Z</time>
</trkpt>
<trkpt lat="42.850894" lon="142.224724">
 <ele>748.040000</ele>
 <time>2015-04-29T00:01:34Z</time>
</trkpt>
<trkpt lat="42.850893" lon="142.224763">
 <ele>749.490000</ele>
 <time>2015-04-29T00:01:37Z</time>
</trkpt>
<trkpt lat="42.850888" lon="142.224786">
 <ele>749.970000</ele>
 <time>2015-04-29T00:01:39Z</time>
</trkpt>
<trkpt lat="42.850871" lon="142.224987">
 <ele>753.330000</ele>
 <time>2015-04-29T00:01:57Z</time>
</trkpt>
<trkpt lat="42.850869" lon="142.225159">
 <ele>756.210000</ele>
 <time>2015-04-29T00:02:13Z</time>
</trkpt>
<trkpt lat="42.850873" lon="142.225196">
 <ele>757.660000</ele>
 <time>2015-04-29T00:02:29Z</time>
</trkpt>
<trkpt lat="42.850857" lon="142.225372">
 <ele>759.580000</ele>
 <time>2015-04-29T00:02:45Z</time>
</trkpt>
<trkpt lat="42.850856" lon="142.225535">
 <ele>761.500000</ele>
 <time>2015-04-29T00:03:01Z</time>
</trkpt>
<trkpt lat="42.850809" lon="142.225678">
 <ele>763.420000</ele>
 <time>2015-04-29T00:03:16Z</time>
</trkpt>
<trkpt lat="42.850808" lon="142.225734">
 <ele>763.900000</ele>
 <time>2015-04-29T00:03:37Z</time>
</trkpt>
<trkpt lat="42.850807" lon="142.225753">
 <ele>764.390000</ele>
 <time>2015-04-29T00:03:39Z</time>
</trkpt>
<trkpt lat="42.850808" lon="142.225825">
 <ele>764.390000</ele>
 <time>2015-04-29T00:03:44Z</time>
</trkpt>
<trkpt lat="42.850805" lon="142.225985">
 <ele>764.870000</ele>
 <time>2015-04-29T00:03:59Z</time>
</trkpt>
<trkpt lat="42.850788" lon="142.226141">
 <ele>766.790000</ele>
 <time>2015-04-29T00:04:14Z</time>
</trkpt>
<trkpt lat="42.850771" lon="142.226218">
 <ele>767.270000</ele>
 <time>2015-04-29T00:04:37Z</time>
</trkpt>
<trkpt lat="42.850738" lon="142.226245">
 <ele>767.270000</ele>
 <time>2015-04-29T00:04:52Z</time>
</trkpt>
<trkpt lat="42.850700" lon="142.226269">
 <ele>767.270000</ele>
 <time>2015-04-29T00:04:56Z</time>
</trkpt>
<trkpt lat="42.850567" lon="142.226307">
 <ele>768.710000</ele>
 <time>2015-04-29T00:05:11Z</time>
</trkpt>
<trkpt lat="42.850465" lon="142.226255">
 <ele>770.150000</ele>
 <time>2015-04-29T00:05:23Z</time>
</trkpt>
<trkpt lat="42.850409" lon="142.226243">
 <ele>770.150000</ele>
 <time>2015-04-29T00:05:29Z</time>
</trkpt>
<trkpt lat="42.850286" lon="142.226225">
 <ele>770.630000</ele>
 <time>2015-04-29T00:05:42Z</time>
</trkpt>
<trkpt lat="42.850222" lon="142.226219">
 <ele>771.110000</ele>
 <time>2015-04-29T00:05:49Z</time>
</trkpt>
<trkpt lat="42.850100" lon="142.226271">
 <ele>773.040000</ele>
 <time>2015-04-29T00:06:04Z</time>
</trkpt>
<trkpt lat="42.850077" lon="142.226287">
 <ele>774.000000</ele>
 <time>2015-04-29T00:06:16Z</time>
</trkpt>
<trkpt lat="42.850046" lon="142.226321">
 <ele>774.480000</ele>
 <time>2015-04-29T00:06:35Z</time>
</trkpt>
<trkpt lat="42.850020" lon="142.226344">
 <ele>774.960000</ele>
 <time>2015-04-29T00:06:39Z</time>
</trkpt>
<trkpt lat="42.849904" lon="142.226452">
 <ele>776.400000</ele>
 <time>2015-04-29T00:06:54Z</time>
</trkpt>
<trkpt lat="42.849771" lon="142.226557">
 <ele>778.320000</ele>
 <time>2015-04-29T00:07:10Z</time>
</trkpt>
<trkpt lat="42.849728" lon="142.226585">
 <ele>778.320000</ele>
 <time>2015-04-29T00:07:14Z</time>
</trkpt>
<trkpt lat="42.849623" lon="142.226719">
 <ele>779.770000</ele>
 <time>2015-04-29T00:07:31Z</time>
</trkpt>
<trkpt lat="42.849524" lon="142.226840">
 <ele>781.210000</ele>
 <time>2015-04-29T00:07:45Z</time>
</trkpt>
<trkpt lat="42.849433" lon="142.226935">
 <ele>782.170000</ele>
 <time>2015-04-29T00:07:57Z</time>
</trkpt>
<trkpt lat="42.849360" lon="142.227086">
 <ele>783.610000</ele>
 <time>2015-04-29T00:08:13Z</time>
</trkpt>
<trkpt lat="42.849347" lon="142.227113">
 <ele>783.610000</ele>
 <time>2015-04-29T00:08:35Z</time>
</trkpt>
<trkpt lat="42.849325" lon="142.227147">
 <ele>783.610000</ele>
 <time>2015-04-29T00:08:48Z</time>
</trkpt>
<trkpt lat="42.849269" lon="142.227203">
 <ele>783.610000</ele>
 <time>2015-04-29T00:08:55Z</time>
</trkpt>
<trkpt lat="42.849179" lon="142.227308">
 <ele>785.530000</ele>
 <time>2015-04-29T00:09:09Z</time>
</trkpt>
<trkpt lat="42.849169" lon="142.227326">
 <ele>785.530000</ele>
 <time>2015-04-29T00:09:11Z</time>
</trkpt>
<trkpt lat="42.849125" lon="142.227375">
 <ele>786.500000</ele>
 <time>2015-04-29T00:09:27Z</time>
</trkpt>
<trkpt lat="42.849075" lon="142.227433">
 <ele>787.460000</ele>
 <time>2015-04-29T00:09:44Z</time>
</trkpt>
<trkpt lat="42.849031" lon="142.227458">
 <ele>790.340000</ele>
 <time>2015-04-29T00:09:54Z</time>
</trkpt>
<trkpt lat="42.848989" lon="142.227483">
 <ele>792.260000</ele>
 <time>2015-04-29T00:10:07Z</time>
</trkpt>
<trkpt lat="42.848908" lon="142.227534">
 <ele>795.150000</ele>
 <time>2015-04-29T00:10:21Z</time>
</trkpt>
<trkpt lat="42.848893" lon="142.227552">
 <ele>795.630000</ele>
 <time>2015-04-29T00:10:35Z</time>
</trkpt>
<trkpt lat="42.848874" lon="142.227559">
 <ele>794.670000</ele>
 <time>2015-04-29T00:10:57Z</time>
</trkpt>
<trkpt lat="42.848816" lon="142.227620">
 <ele>795.630000</ele>
 <time>2015-04-29T00:11:12Z</time>
</trkpt>
<trkpt lat="42.848760" lon="142.227669">
 <ele>798.510000</ele>
 <time>2015-04-29T00:11:23Z</time>
</trkpt>
<trkpt lat="42.848722" lon="142.227681">
 <ele>798.510000</ele>
 <time>2015-04-29T00:11:37Z</time>
</trkpt>
<trkpt lat="42.848706" lon="142.227691">
 <ele>796.590000</ele>
 <time>2015-04-29T00:11:42Z</time>
</trkpt>
<trkpt lat="42.848676" lon="142.227731">
 <ele>798.030000</ele>
 <time>2015-04-29T00:11:55Z</time>
</trkpt>
<trkpt lat="42.848608" lon="142.227743">
 <ele>798.510000</ele>
 <time>2015-04-29T00:12:08Z</time>
</trkpt>
<trkpt lat="42.848586" lon="142.227769">
 <ele>798.990000</ele>
 <time>2015-04-29T00:12:29Z</time>
</trkpt>
<trkpt lat="42.848579" lon="142.227755">
 <ele>798.990000</ele>
 <time>2015-04-29T00:12:46Z</time>
</trkpt>
<trkpt lat="42.848596" lon="142.227746">
 <ele>798.990000</ele>
 <time>2015-04-29T00:14:52Z</time>
</trkpt>
<trkpt lat="42.848622" lon="142.227745">
 <ele>797.550000</ele>
 <time>2015-04-29T00:15:20Z</time>
</trkpt>
<trkpt lat="42.848657" lon="142.227731">
 <ele>796.590000</ele>
 <time>2015-04-29T00:15:42Z</time>
</trkpt>
<trkpt lat="42.848674" lon="142.227725">
 <ele>797.550000</ele>
 <time>2015-04-29T00:15:47Z</time>
</trkpt>
<trkpt lat="42.848715" lon="142.227693">
 <ele>798.030000</ele>
 <time>2015-04-29T00:16:41Z</time>
</trkpt>
<trkpt lat="42.848740" lon="142.227674">
 <ele>798.510000</ele>
 <time>2015-04-29T00:18:02Z</time>
</trkpt>
<trkpt lat="42.848745" lon="142.227669">
 <ele>796.110000</ele>
 <time>2015-04-29T00:18:21Z</time>
</trkpt>
<trkpt lat="42.848791" lon="142.227637">
 <ele>796.110000</ele>
 <time>2015-04-29T00:18:55Z</time>
</trkpt>
<trkpt lat="42.848843" lon="142.227599">
 <ele>794.670000</ele>
 <time>2015-04-29T00:19:03Z</time>
</trkpt>
<trkpt lat="42.848923" lon="142.227528">
 <ele>792.260000</ele>
 <time>2015-04-29T00:19:19Z</time>
</trkpt>
<trkpt lat="42.848967" lon="142.227485">
 <ele>791.300000</ele>
 <time>2015-04-29T00:19:34Z</time>
</trkpt>
<trkpt lat="42.849010" lon="142.227444">
 <ele>789.380000</ele>
 <time>2015-04-29T00:19:51Z</time>
</trkpt>
<trkpt lat="42.849058" lon="142.227417">
 <ele>786.980000</ele>
 <time>2015-04-29T00:20:05Z</time>
</trkpt>
<trkpt lat="42.849151" lon="142.227323">
 <ele>784.090000</ele>
 <time>2015-04-29T00:20:20Z</time>
</trkpt>
<trkpt lat="42.849195" lon="142.227254">
 <ele>782.650000</ele>
 <time>2015-04-29T00:20:28Z</time>
</trkpt>
<trkpt lat="42.849228" lon="142.227214">
 <ele>781.690000</ele>
 <time>2015-04-29T00:20:32Z</time>
</trkpt>
<trkpt lat="42.849248" lon="142.227202">
 <ele>781.690000</ele>
 <time>2015-04-29T00:20:34Z</time>
</trkpt>
<trkpt lat="42.849350" lon="142.227070">
 <ele>781.210000</ele>
 <time>2015-04-29T00:20:50Z</time>
</trkpt>
<trkpt lat="42.849459" lon="142.226891">
 <ele>780.730000</ele>
 <time>2015-04-29T00:21:08Z</time>
</trkpt>
<trkpt lat="42.849585" lon="142.226761">
 <ele>778.320000</ele>
 <time>2015-04-29T00:21:27Z</time>
</trkpt>
<trkpt lat="42.849712" lon="142.226593">
 <ele>776.880000</ele>
 <time>2015-04-29T00:21:44Z</time>
</trkpt>
<trkpt lat="42.849879" lon="142.226454">
 <ele>775.920000</ele>
 <time>2015-04-29T00:22:02Z</time>
</trkpt>
<trkpt lat="42.850042" lon="142.226320">
 <ele>773.520000</ele>
 <time>2015-04-29T00:22:20Z</time>
</trkpt>
<trkpt lat="42.850169" lon="142.226216">
 <ele>770.630000</ele>
 <time>2015-04-29T00:22:38Z</time>
</trkpt>
<trkpt lat="42.850252" lon="142.226203">
 <ele>769.670000</ele>
 <time>2015-04-29T00:22:47Z</time>
</trkpt>
<trkpt lat="42.850430" lon="142.226240">
 <ele>768.230000</ele>
 <time>2015-04-29T00:23:05Z</time>
</trkpt>
<trkpt lat="42.850514" lon="142.226281">
 <ele>768.230000</ele>
 <time>2015-04-29T00:23:15Z</time>
</trkpt>
<trkpt lat="42.850589" lon="142.226295">
 <ele>767.270000</ele>
 <time>2015-04-29T00:23:28Z</time>
</trkpt>
<trkpt lat="42.850755" lon="142.226199">
 <ele>765.350000</ele>
 <time>2015-04-29T00:23:45Z</time>
</trkpt>
<trkpt lat="42.850778" lon="142.226147">
 <ele>765.350000</ele>
 <time>2015-04-29T00:23:49Z</time>
</trkpt>
<trkpt lat="42.850791" lon="142.226069">
 <ele>764.870000</ele>
 <time>2015-04-29T00:23:54Z</time>
</trkpt>
<trkpt lat="42.850795" lon="142.225923">
 <ele>762.940000</ele>
 <time>2015-04-29T00:24:05Z</time>
</trkpt>
<trkpt lat="42.850801" lon="142.225690">
 <ele>761.980000</ele>
 <time>2015-04-29T00:24:21Z</time>
</trkpt>
<trkpt lat="42.850806" lon="142.225658">
 <ele>761.500000</ele>
 <time>2015-04-29T00:24:23Z</time>
</trkpt>
<trkpt lat="42.850833" lon="142.225573">
 <ele>760.540000</ele>
 <time>2015-04-29T00:24:30Z</time>
</trkpt>
<trkpt lat="42.850844" lon="142.225419">
 <ele>759.100000</ele>
 <time>2015-04-29T00:24:41Z</time>
</trkpt>
<trkpt lat="42.850853" lon="142.225238">
 <ele>755.250000</ele>
 <time>2015-04-29T00:24:55Z</time>
</trkpt>
<trkpt lat="42.850853" lon="142.225227">
 <ele>755.250000</ele>
 <time>2015-04-29T00:24:56Z</time>
</trkpt>
<trkpt lat="42.850864" lon="142.225028">
 <ele>752.370000</ele>
 <time>2015-04-29T00:25:10Z</time>
</trkpt>
<trkpt lat="42.850868" lon="142.224846">
 <ele>748.520000</ele>
 <time>2015-04-29T00:25:24Z</time>
</trkpt>
<trkpt lat="42.850870" lon="142.224817">
 <ele>748.040000</ele>
 <time>2015-04-29T00:25:26Z</time>
</trkpt>
<trkpt lat="42.850910" lon="142.224530">
 <ele>744.680000</ele>
 <time>2015-04-29T00:25:44Z</time>
</trkpt>
<trkpt lat="42.851031" lon="142.224287">
 <ele>746.600000</ele>
 <time>2015-04-29T00:26:02Z</time>
</trkpt>
<trkpt lat="42.851079" lon="142.224197">
 <ele>747.080000</ele>
 <time>2015-04-29T00:26:18Z</time>
</trkpt>
<trkpt lat="42.851129" lon="142.224093">
 <ele>747.080000</ele>
 <time>2015-04-29T00:26:33Z</time>
</trkpt>
<trkpt lat="42.851267" lon="142.224012">
 <ele>745.160000</ele>
 <time>2015-04-29T00:26:48Z</time>
</trkpt>
<trkpt lat="42.851330" lon="142.224089">
 <ele>744.680000</ele>
 <time>2015-04-29T00:26:55Z</time>
</trkpt>
<trkpt lat="42.851472" lon="142.224321">
 <ele>743.240000</ele>
 <time>2015-04-29T00:27:14Z</time>
</trkpt>
<trkpt lat="42.851507" lon="142.224308">
 <ele>742.760000</ele>
 <time>2015-04-29T00:27:19Z</time>
</trkpt>
<trkpt lat="42.851572" lon="142.224052">
 <ele>741.790000</ele>
 <time>2015-04-29T00:27:38Z</time>
</trkpt>
<trkpt lat="42.851588" lon="142.224026">
 <ele>741.310000</ele>
 <time>2015-04-29T00:27:40Z</time>
</trkpt>
<trkpt lat="42.851606" lon="142.223955">
 <ele>741.310000</ele>
 <time>2015-04-29T00:27:45Z</time>
</trkpt>
<trkpt lat="42.851509" lon="142.223679">
 <ele>740.830000</ele>
 <time>2015-04-29T00:28:05Z</time>
</trkpt>
<trkpt lat="42.851399" lon="142.223469">
 <ele>739.870000</ele>
 <time>2015-04-29T00:28:21Z</time>
</trkpt>
<trkpt lat="42.851353" lon="142.223394">
 <ele>739.390000</ele>
 <time>2015-04-29T00:28:27Z</time>
</trkpt>
<trkpt lat="42.851227" lon="142.223200">
 <ele>738.910000</ele>
 <time>2015-04-29T00:28:44Z</time>
</trkpt>
<trkpt lat="42.851216" lon="142.223190">
 <ele>738.910000</ele>
 <time>2015-04-29T00:28:45Z</time>
</trkpt>
<trkpt lat="42.851169" lon="142.223120">
 <ele>737.950000</ele>
 <time>2015-04-29T00:28:51Z</time>
</trkpt>
<trkpt lat="42.851044" lon="142.222910">
 <ele>736.990000</ele>
 <time>2015-04-29T00:29:08Z</time>
</trkpt>
<trkpt lat="42.850971" lon="142.222816">
 <ele>735.070000</ele>
 <time>2015-04-29T00:29:23Z</time>
</trkpt>
<trkpt lat="42.850942" lon="142.222764">
 <ele>734.580000</ele>
 <time>2015-04-29T00:29:59Z</time>
</trkpt>
<trkpt lat="42.850864" lon="142.222655">
 <ele>734.580000</ele>
 <time>2015-04-29T00:30:12Z</time>
</trkpt>
<trkpt lat="42.850835" lon="142.222611">
 <ele>734.580000</ele>
 <time>2015-04-29T00:30:17Z</time>
</trkpt>
<trkpt lat="42.850711" lon="142.222409">
 <ele>734.580000</ele>
 <time>2015-04-29T00:30:35Z</time>
</trkpt>
<trkpt lat="42.850689" lon="142.222367">
 <ele>734.580000</ele>
 <time>2015-04-29T00:30:38Z</time>
</trkpt>
<trkpt lat="42.850628" lon="142.222268">
 <ele>734.580000</ele>
 <time>2015-04-29T00:30:46Z</time>
</trkpt>
<trkpt lat="42.850548" lon="142.222136">
 <ele>734.580000</ele>
 <time>2015-04-29T00:30:57Z</time>
</trkpt>
<trkpt lat="42.850470" lon="142.222032">
 <ele>733.620000</ele>
 <time>2015-04-29T00:31:11Z</time>
</trkpt>
<trkpt lat="42.850326" lon="142.221892">
 <ele>733.140000</ele>
 <time>2015-04-29T00:31:29Z</time>
</trkpt>
<trkpt lat="42.850314" lon="142.221877">
 <ele>733.140000</ele>
 <time>2015-04-29T00:31:31Z</time>
</trkpt>
<trkpt lat="42.850215" lon="142.221722">
 <ele>732.660000</ele>
 <time>2015-04-29T00:31:48Z</time>
</trkpt>
<trkpt lat="42.850150" lon="142.221576">
 <ele>731.220000</ele>
 <time>2015-04-29T00:31:59Z</time>
</trkpt>
<trkpt lat="42.850020" lon="142.221399">
 <ele>729.780000</ele>
 <time>2015-04-29T00:32:14Z</time>
</trkpt>
<trkpt lat="42.849963" lon="142.221272">
 <ele>729.780000</ele>
 <time>2015-04-29T00:32:27Z</time>
</trkpt>
<trkpt lat="42.849888" lon="142.221044">
 <ele>728.340000</ele>
 <time>2015-04-29T00:32:41Z</time>
</trkpt>
<trkpt lat="42.849803" lon="142.220853">
 <ele>726.890000</ele>
 <time>2015-04-29T00:32:54Z</time>
</trkpt>
<trkpt lat="42.849776" lon="142.220694">
 <ele>725.450000</ele>
 <time>2015-04-29T00:33:05Z</time>
</trkpt>
<trkpt lat="42.849727" lon="142.220586">
 <ele>724.490000</ele>
 <time>2015-04-29T00:33:15Z</time>
</trkpt>
<trkpt lat="42.849725" lon="142.220591">
 <ele>723.530000</ele>
 <time>2015-04-29T00:33:27Z</time>
</trkpt>
<trkpt lat="42.849742" lon="142.220702">
 <ele>723.530000</ele>
 <time>2015-04-29T00:33:36Z</time>
</trkpt>
<trkpt lat="42.849743" lon="142.220898">
 <ele>722.570000</ele>
 <time>2015-04-29T00:33:51Z</time>
</trkpt>
<trkpt lat="42.849732" lon="142.221094">
 <ele>719.200000</ele>
 <time>2015-04-29T00:34:06Z</time>
</trkpt>
<trkpt lat="42.849734" lon="142.221256">
 <ele>717.760000</ele>
 <time>2015-04-29T00:34:20Z</time>
</trkpt>
<trkpt lat="42.849738" lon="142.221302">
 <ele>717.280000</ele>
 <time>2015-04-29T00:34:24Z</time>
</trkpt>
<trkpt lat="42.849750" lon="142.221473">
 <ele>715.840000</ele>
 <time>2015-04-29T00:34:37Z</time>
</trkpt>
<trkpt lat="42.849773" lon="142.221665">
 <ele>713.920000</ele>
 <time>2015-04-29T00:34:51Z</time>
</trkpt>
<trkpt lat="42.849794" lon="142.221875">
 <ele>711.990000</ele>
 <time>2015-04-29T00:35:06Z</time>
</trkpt>
<trkpt lat="42.849809" lon="142.222086">
 <ele>711.030000</ele>
 <time>2015-04-29T00:35:19Z</time>
</trkpt>
<trkpt lat="42.849794" lon="142.222123">
 <ele>711.030000</ele>
 <time>2015-04-29T00:35:22Z</time>
</trkpt>
<trkpt lat="42.849685" lon="142.222304">
 <ele>711.030000</ele>
 <time>2015-04-29T00:35:35Z</time>
</trkpt>
<trkpt lat="42.849554" lon="142.222474">
 <ele>709.110000</ele>
 <time>2015-04-29T00:35:55Z</time>
</trkpt>
<trkpt lat="42.849546" lon="142.222470">
 <ele>708.630000</ele>
 <time>2015-04-29T00:35:56Z</time>
</trkpt>
<trkpt lat="42.849397" lon="142.222387">
 <ele>705.260000</ele>
 <time>2015-04-29T00:36:14Z</time>
</trkpt>
<trkpt lat="42.849343" lon="142.222317">
 <ele>704.300000</ele>
 <time>2015-04-29T00:36:26Z</time>
</trkpt>
<trkpt lat="42.849291" lon="142.222247">
 <ele>703.820000</ele>
 <time>2015-04-29T00:36:32Z</time>
</trkpt>
<trkpt lat="42.849162" lon="142.222051">
 <ele>701.420000</ele>
 <time>2015-04-29T00:36:49Z</time>
</trkpt>
<trkpt lat="42.848996" lon="142.222034">
 <ele>698.050000</ele>
 <time>2015-04-29T00:37:07Z</time>
</trkpt>
<trkpt lat="42.848963" lon="142.222037">
 <ele>698.050000</ele>
 <time>2015-04-29T00:37:11Z</time>
</trkpt>
<trkpt lat="42.848907" lon="142.221973">
 <ele>697.090000</ele>
 <time>2015-04-29T00:37:17Z</time>
</trkpt>
<trkpt lat="42.848794" lon="142.221866">
 <ele>694.210000</ele>
 <time>2015-04-29T00:37:33Z</time>
</trkpt>
<trkpt lat="42.848760" lon="142.221849">
 <ele>693.730000</ele>
 <time>2015-04-29T00:37:37Z</time>
</trkpt>
<trkpt lat="42.848713" lon="142.221829">
 <ele>692.770000</ele>
 <time>2015-04-29T00:37:42Z</time>
</trkpt>
<trkpt lat="42.848583" lon="142.221804">
 <ele>689.880000</ele>
 <time>2015-04-29T00:37:55Z</time>
</trkpt>
<trkpt lat="42.848486" lon="142.221796">
 <ele>687.480000</ele>
 <time>2015-04-29T00:38:04Z</time>
</trkpt>
<trkpt lat="42.848434" lon="142.221799">
 <ele>687.480000</ele>
 <time>2015-04-29T00:38:09Z</time>
</trkpt>
<trkpt lat="42.848343" lon="142.221812">
 <ele>685.560000</ele>
 <time>2015-04-29T00:38:17Z</time>
</trkpt>
<trkpt lat="42.848132" lon="142.221901">
 <ele>682.670000</ele>
 <time>2015-04-29T00:38:37Z</time>
</trkpt>
<trkpt lat="42.848084" lon="142.221908">
 <ele>682.190000</ele>
 <time>2015-04-29T00:38:41Z</time>
</trkpt>
<trkpt lat="42.847906" lon="142.221975">
 <ele>678.830000</ele>
 <time>2015-04-29T00:39:00Z</time>
</trkpt>
<trkpt lat="42.847777" lon="142.221997">
 <ele>676.420000</ele>
 <time>2015-04-29T00:39:13Z</time>
</trkpt>
<trkpt lat="42.847621" lon="142.222035">
 <ele>674.020000</ele>
 <time>2015-04-29T00:39:29Z</time>
</trkpt>
<trkpt lat="42.847473" lon="142.222098">
 <ele>672.580000</ele>
 <time>2015-04-29T00:39:44Z</time>
</trkpt>
<trkpt lat="42.847399" lon="142.222137">
 <ele>672.100000</ele>
 <time>2015-04-29T00:39:51Z</time>
</trkpt>
<trkpt lat="42.847237" lon="142.222228">
 <ele>668.730000</ele>
 <time>2015-04-29T00:40:07Z</time>
</trkpt>
<trkpt lat="42.847193" lon="142.222256">
 <ele>668.250000</ele>
 <time>2015-04-29T00:40:11Z</time>
</trkpt>
<trkpt lat="42.846965" lon="142.222334">
 <ele>666.330000</ele>
 <time>2015-04-29T00:40:31Z</time>
</trkpt>
<trkpt lat="42.846946" lon="142.222352">
 <ele>666.330000</ele>
 <time>2015-04-29T00:40:33Z</time>
</trkpt>
<trkpt lat="42.846884" lon="142.222392">
 <ele>665.850000</ele>
 <time>2015-04-29T00:40:39Z</time>
</trkpt>
<trkpt lat="42.846841" lon="142.222416">
 <ele>665.850000</ele>
 <time>2015-04-29T00:40:43Z</time>
</trkpt>
<trkpt lat="42.846704" lon="142.222563">
 <ele>663.930000</ele>
 <time>2015-04-29T00:40:59Z</time>
</trkpt>
<trkpt lat="42.846632" lon="142.222755">
 <ele>661.520000</ele>
 <time>2015-04-29T00:41:14Z</time>
</trkpt>
<trkpt lat="42.846558" lon="142.222919">
 <ele>660.080000</ele>
 <time>2015-04-29T00:41:30Z</time>
</trkpt>
<trkpt lat="42.846519" lon="142.223077">
 <ele>658.640000</ele>
 <time>2015-04-29T00:42:15Z</time>
</trkpt>
<trkpt lat="42.846520" lon="142.223139">
 <ele>657.680000</ele>
 <time>2015-04-29T00:42:31Z</time>
</trkpt>
<trkpt lat="42.846522" lon="142.223152">
 <ele>657.680000</ele>
 <time>2015-04-29T00:42:32Z</time>
</trkpt>
<trkpt lat="42.846532" lon="142.223299">
 <ele>656.240000</ele>
 <time>2015-04-29T00:42:43Z</time>
</trkpt>
<trkpt lat="42.846507" lon="142.223548">
 <ele>655.280000</ele>
 <time>2015-04-29T00:43:00Z</time>
</trkpt>
<trkpt lat="42.846480" lon="142.223717">
 <ele>652.870000</ele>
 <time>2015-04-29T00:43:14Z</time>
</trkpt>
<trkpt lat="42.846429" lon="142.223921">
 <ele>649.990000</ele>
 <time>2015-04-29T00:43:30Z</time>
</trkpt>
<trkpt lat="42.846415" lon="142.223960">
 <ele>649.510000</ele>
 <time>2015-04-29T00:43:34Z</time>
</trkpt>
<trkpt lat="42.846308" lon="142.223999">
 <ele>649.030000</ele>
 <time>2015-04-29T00:43:43Z</time>
</trkpt>
<trkpt lat="42.846220" lon="142.224006">
 <ele>647.100000</ele>
 <time>2015-04-29T00:43:57Z</time>
</trkpt>
<trkpt lat="42.846134" lon="142.223911">
 <ele>646.620000</ele>
 <time>2015-04-29T00:44:10Z</time>
</trkpt>
<trkpt lat="42.846076" lon="142.223792">
 <ele>644.220000</ele>
 <time>2015-04-29T00:44:24Z</time>
</trkpt>
<trkpt lat="42.846071" lon="142.223781">
 <ele>643.740000</ele>
 <time>2015-04-29T00:44:25Z</time>
</trkpt>
<trkpt lat="42.846058" lon="142.223757">
 <ele>643.740000</ele>
 <time>2015-04-29T00:44:27Z</time>
</trkpt>
<trkpt lat="42.846017" lon="142.223695">
 <ele>642.780000</ele>
 <time>2015-04-29T00:44:33Z</time>
</trkpt>
<trkpt lat="42.845890" lon="142.223533">
 <ele>639.890000</ele>
 <time>2015-04-29T00:44:51Z</time>
</trkpt>
<trkpt lat="42.845882" lon="142.223526">
 <ele>639.890000</ele>
 <time>2015-04-29T00:44:52Z</time>
</trkpt>
<trkpt lat="42.845807" lon="142.223456">
 <ele>639.410000</ele>
 <time>2015-04-29T00:45:00Z</time>
</trkpt>
<trkpt lat="42.845682" lon="142.223354">
 <ele>637.010000</ele>
 <time>2015-04-29T00:45:15Z</time>
</trkpt>
<trkpt lat="42.845673" lon="142.223346">
 <ele>637.490000</ele>
 <time>2015-04-29T00:45:16Z</time>
</trkpt>
<trkpt lat="42.845550" lon="142.223275">
 <ele>635.090000</ele>
 <time>2015-04-29T00:45:28Z</time>
</trkpt>
<trkpt lat="42.845397" lon="142.223217">
 <ele>632.680000</ele>
 <time>2015-04-29T00:45:43Z</time>
</trkpt>
<trkpt lat="42.845281" lon="142.223224">
 <ele>630.760000</ele>
 <time>2015-04-29T00:45:56Z</time>
</trkpt>
<trkpt lat="42.845258" lon="142.223235">
 <ele>630.280000</ele>
 <time>2015-04-29T00:45:58Z</time>
</trkpt>
<trkpt lat="42.845165" lon="142.223345">
 <ele>627.400000</ele>
 <time>2015-04-29T00:46:14Z</time>
</trkpt>
<trkpt lat="42.845086" lon="142.223382">
 <ele>625.960000</ele>
 <time>2015-04-29T00:46:26Z</time>
</trkpt>
<trkpt lat="42.845003" lon="142.223398">
 <ele>623.550000</ele>
 <time>2015-04-29T00:46:40Z</time>
</trkpt>
<trkpt lat="42.844868" lon="142.223538">
 <ele>623.070000</ele>
 <time>2015-04-29T00:46:54Z</time>
</trkpt>
<trkpt lat="42.844832" lon="142.223588">
 <ele>622.590000</ele>
 <time>2015-04-29T00:46:58Z</time>
</trkpt>
<trkpt lat="42.844699" lon="142.223792">
 <ele>620.670000</ele>
 <time>2015-04-29T00:47:14Z</time>
</trkpt>
<trkpt lat="42.844606" lon="142.223969">
 <ele>619.230000</ele>
 <time>2015-04-29T00:47:29Z</time>
</trkpt>
<trkpt lat="42.844553" lon="142.224059">
 <ele>618.260000</ele>
 <time>2015-04-29T00:47:37Z</time>
</trkpt>
<trkpt lat="42.844443" lon="142.224211">
 <ele>616.820000</ele>
 <time>2015-04-29T00:47:52Z</time>
</trkpt>
<trkpt lat="42.844347" lon="142.224294">
 <ele>615.860000</ele>
 <time>2015-04-29T00:48:12Z</time>
</trkpt>
<trkpt lat="42.844233" lon="142.224468">
 <ele>613.460000</ele>
 <time>2015-04-29T00:48:54Z</time>
</trkpt>
<trkpt lat="42.844137" lon="142.224585">
 <ele>612.980000</ele>
 <time>2015-04-29T00:49:07Z</time>
</trkpt>
<trkpt lat="42.844130" lon="142.224598">
 <ele>612.980000</ele>
 <time>2015-04-29T00:49:08Z</time>
</trkpt>
<trkpt lat="42.843971" lon="142.224749">
 <ele>612.500000</ele>
 <time>2015-04-29T00:49:26Z</time>
</trkpt>
<trkpt lat="42.843832" lon="142.224876">
 <ele>611.540000</ele>
 <time>2015-04-29T00:49:42Z</time>
</trkpt>
<trkpt lat="42.843693" lon="142.224975">
 <ele>611.060000</ele>
 <time>2015-04-29T00:49:55Z</time>
</trkpt>
<trkpt lat="42.843619" lon="142.225016">
 <ele>611.060000</ele>
 <time>2015-04-29T00:50:02Z</time>
</trkpt>
<trkpt lat="42.843438" lon="142.225111">
 <ele>609.130000</ele>
 <time>2015-04-29T00:50:19Z</time>
</trkpt>
<trkpt lat="42.843305" lon="142.225250">
 <ele>608.650000</ele>
 <time>2015-04-29T00:50:33Z</time>
</trkpt>
<trkpt lat="42.843193" lon="142.225364">
 <ele>608.650000</ele>
 <time>2015-04-29T00:50:48Z</time>
</trkpt>
<trkpt lat="42.843063" lon="142.225337">
 <ele>606.730000</ele>
 <time>2015-04-29T00:51:03Z</time>
</trkpt>
<trkpt lat="42.842959" lon="142.225375">
 <ele>605.770000</ele>
 <time>2015-04-29T00:51:19Z</time>
</trkpt>
<trkpt lat="42.842825" lon="142.225423">
 <ele>604.810000</ele>
 <time>2015-04-29T00:51:32Z</time>
</trkpt>
<trkpt lat="42.842802" lon="142.225432">
 <ele>604.810000</ele>
 <time>2015-04-29T00:51:34Z</time>
</trkpt>
<trkpt lat="42.842628" lon="142.225536">
 <ele>603.360000</ele>
 <time>2015-04-29T00:51:52Z</time>
</trkpt>
<trkpt lat="42.842493" lon="142.225614">
 <ele>603.360000</ele>
 <time>2015-04-29T00:52:06Z</time>
</trkpt>
<trkpt lat="42.842302" lon="142.225683">
 <ele>601.440000</ele>
 <time>2015-04-29T00:52:24Z</time>
</trkpt>
<trkpt lat="42.842180" lon="142.225727">
 <ele>600.000000</ele>
 <time>2015-04-29T00:52:39Z</time>
</trkpt>
<trkpt lat="42.842082" lon="142.225773">
 <ele>599.520000</ele>
 <time>2015-04-29T00:52:58Z</time>
</trkpt>
<trkpt lat="42.842073" lon="142.225780">
 <ele>599.520000</ele>
 <time>2015-04-29T00:52:59Z</time>
</trkpt>
<trkpt lat="42.841972" lon="142.225916">
 <ele>598.080000</ele>
 <time>2015-04-29T00:53:13Z</time>
</trkpt>
<trkpt lat="42.841831" lon="142.225947">
 <ele>597.120000</ele>
 <time>2015-04-29T00:53:25Z</time>
</trkpt>
<trkpt lat="42.841674" lon="142.225923">
 <ele>595.670000</ele>
 <time>2015-04-29T00:53:39Z</time>
</trkpt>
<trkpt lat="42.841516" lon="142.225974">
 <ele>594.710000</ele>
 <time>2015-04-29T00:53:53Z</time>
</trkpt>
<trkpt lat="42.841372" lon="142.226001">
 <ele>592.790000</ele>
 <time>2015-04-29T00:54:07Z</time>
</trkpt>
<trkpt lat="42.841334" lon="142.226008">
 <ele>592.310000</ele>
 <time>2015-04-29T00:54:10Z</time>
</trkpt>
<trkpt lat="42.841260" lon="142.226034">
 <ele>591.350000</ele>
 <time>2015-04-29T00:54:17Z</time>
</trkpt>
<trkpt lat="42.841083" lon="142.226154">
 <ele>590.870000</ele>
 <time>2015-04-29T00:54:33Z</time>
</trkpt>
<trkpt lat="42.840978" lon="142.226395">
 <ele>589.430000</ele>
 <time>2015-04-29T00:54:50Z</time>
</trkpt>
<trkpt lat="42.840974" lon="142.226409">
 <ele>589.430000</ele>
 <time>2015-04-29T00:54:51Z</time>
</trkpt>
<trkpt lat="42.840958" lon="142.226470">
 <ele>588.950000</ele>
 <time>2015-04-29T00:54:55Z</time>
</trkpt>
<trkpt lat="42.840904" lon="142.226662">
 <ele>587.500000</ele>
 <time>2015-04-29T00:55:10Z</time>
</trkpt>
<trkpt lat="42.840823" lon="142.226924">
 <ele>586.540000</ele>
 <time>2015-04-29T00:55:26Z</time>
</trkpt>
<trkpt lat="42.840678" lon="142.227146">
 <ele>585.100000</ele>
 <time>2015-04-29T00:55:43Z</time>
</trkpt>
<trkpt lat="42.840600" lon="142.227276">
 <ele>583.660000</ele>
 <time>2015-04-29T00:55:53Z</time>
</trkpt>
<trkpt lat="42.840437" lon="142.227236">
 <ele>580.290000</ele>
 <time>2015-04-29T00:56:09Z</time>
</trkpt>
<trkpt lat="42.840332" lon="142.227128">
 <ele>577.410000</ele>
 <time>2015-04-29T00:56:22Z</time>
</trkpt>
<trkpt lat="42.840269" lon="142.227051">
 <ele>574.040000</ele>
 <time>2015-04-29T00:56:33Z</time>
</trkpt>
<trkpt lat="42.840247" lon="142.227023">
 <ele>574.040000</ele>
 <time>2015-04-29T00:56:36Z</time>
</trkpt>
<trkpt lat="42.840154" lon="142.226933">
 <ele>569.720000</ele>
 <time>2015-04-29T00:56:49Z</time>
</trkpt>
<trkpt lat="42.840052" lon="142.226851">
 <ele>566.350000</ele>
 <time>2015-04-29T00:57:02Z</time>
</trkpt>
<trkpt lat="42.839977" lon="142.226838">
 <ele>562.990000</ele>
 <time>2015-04-29T00:57:12Z</time>
</trkpt>
<trkpt lat="42.839843" lon="142.226849">
 <ele>559.620000</ele>
 <time>2015-04-29T00:57:26Z</time>
</trkpt>
<trkpt lat="42.839755" lon="142.226838">
 <ele>556.740000</ele>
 <time>2015-04-29T00:57:37Z</time>
</trkpt>
<trkpt lat="42.839724" lon="142.226871">
 <ele>555.780000</ele>
 <time>2015-04-29T00:57:42Z</time>
</trkpt>
<trkpt lat="42.839777" lon="142.227076">
 <ele>553.860000</ele>
 <time>2015-04-29T00:57:58Z</time>
</trkpt>
<trkpt lat="42.839815" lon="142.227329">
 <ele>553.380000</ele>
 <time>2015-04-29T00:58:12Z</time>
</trkpt>
<trkpt lat="42.839823" lon="142.227556">
 <ele>552.900000</ele>
 <time>2015-04-29T00:58:27Z</time>
</trkpt>
<trkpt lat="42.839813" lon="142.227674">
 <ele>552.900000</ele>
 <time>2015-04-29T00:58:41Z</time>
</trkpt>
<trkpt lat="42.839790" lon="142.227814">
 <ele>551.930000</ele>
 <time>2015-04-29T00:58:52Z</time>
</trkpt>
<trkpt lat="42.839745" lon="142.228015">
 <ele>549.050000</ele>
 <time>2015-04-29T00:59:06Z</time>
</trkpt>
<trkpt lat="42.839657" lon="142.228178">
 <ele>545.690000</ele>
 <time>2015-04-29T00:59:18Z</time>
</trkpt>
<trkpt lat="42.839619" lon="142.228233">
 <ele>543.760000</ele>
 <time>2015-04-29T00:59:31Z</time>
</trkpt>
<trkpt lat="42.839615" lon="142.228298">
 <ele>543.760000</ele>
 <time>2015-04-29T00:59:47Z</time>
</trkpt>
<trkpt lat="42.839611" lon="142.228317">
 <ele>542.800000</ele>
 <time>2015-04-29T01:02:21Z</time>
</trkpt>
</trkseg>
</trk>
</gpx>
